createdAt,value
2018-09-26T00:00:44.823Z,1029.12
2018-09-26T00:01:44.815Z,1029.12
2018-09-26T00:02:44.815Z,1029.12
2018-09-26T00:03:44.818Z,1029.16
2018-09-26T00:04:44.786Z,1029.14
2018-09-26T00:05:44.777Z,1029.15
2018-09-26T00:06:44.769Z,1029.21
2018-09-26T00:07:44.759Z,1029.18
2018-09-26T00:08:44.754Z,1029.17
2018-09-26T00:09:44.761Z,1029.16
2018-09-26T00:10:44.735Z,1029.17
2018-09-26T00:11:44.729Z,1029.16
2018-09-26T00:12:44.721Z,1029.14
2018-09-26T00:13:44.714Z,1029.11
2018-09-26T00:14:44.699Z,1029.08
2018-09-26T00:15:44.702Z,1029.09
2018-09-26T00:16:44.688Z,1029.05
2018-09-26T00:17:44.679Z,1028.99
2018-09-26T00:18:44.671Z,1028.96
2018-09-26T00:19:44.662Z,1028.90
2018-09-26T00:20:44.652Z,1028.91
2018-09-26T00:21:44.647Z,1028.82
2018-09-26T00:22:44.639Z,1028.82
2018-09-26T00:23:44.636Z,1028.77
2018-09-26T00:24:44.621Z,1028.71
2018-09-26T00:25:44.617Z,1028.68
2018-09-26T00:26:44.604Z,1028.69
2018-09-26T00:27:44.598Z,1028.64
2018-09-26T00:28:44.588Z,1028.65
2018-09-26T00:29:44.579Z,1028.68
2018-09-26T00:30:44.584Z,1028.72
2018-09-26T00:31:44.569Z,1028.69
2018-09-26T00:32:44.559Z,1028.70
2018-09-26T00:33:44.546Z,1028.69
2018-09-26T00:34:44.543Z,1028.75
2018-09-26T00:35:44.555Z,1028.75
2018-09-26T00:36:44.520Z,1028.76
2018-09-26T00:37:44.520Z,1028.71
2018-09-26T00:38:44.530Z,1028.74
2018-09-26T00:39:44.500Z,1028.71
2018-09-26T00:40:44.487Z,1028.69
2018-09-26T00:41:44.484Z,1028.70
2018-09-26T00:42:44.474Z,1028.64
2018-09-26T00:43:44.472Z,1028.67
2018-09-26T00:44:44.463Z,1028.63
2018-09-26T00:45:44.448Z,1028.71
2018-09-26T00:46:44.444Z,1028.67
2018-09-26T00:47:44.431Z,1028.70
2018-09-26T00:48:44.418Z,1028.66
2018-09-26T00:49:44.414Z,1028.71
2018-09-26T00:50:44.405Z,1028.74
2018-09-26T00:51:44.397Z,1028.72
2018-09-26T00:52:44.394Z,1028.72
2018-09-26T00:53:44.384Z,1028.71
2018-09-26T00:54:44.373Z,1028.66
2018-09-26T00:55:44.361Z,1028.69
2018-09-26T00:56:44.363Z,1028.71
2018-09-26T00:57:44.344Z,1028.70
2018-09-26T00:58:44.997Z,1028.69
2018-09-26T00:59:44.327Z,1028.70
2018-09-26T01:00:44.323Z,1028.70
2018-09-26T01:01:44.315Z,1028.69
2018-09-26T01:02:44.307Z,1028.64
2018-09-26T01:03:44.297Z,1028.67
2018-09-26T01:04:44.287Z,1028.68
2018-09-26T01:05:44.276Z,1028.70
2018-09-26T01:06:44.278Z,1028.70
2018-09-26T01:07:44.262Z,1028.71
2018-09-26T01:08:44.252Z,1028.68
2018-09-26T01:09:44.244Z,1028.61
2018-09-26T01:10:44.237Z,1028.57
2018-09-26T01:11:44.252Z,1028.55
2018-09-26T01:12:44.220Z,1028.47
2018-09-26T01:13:44.219Z,1028.47
2018-09-26T01:14:44.232Z,1028.45
2018-09-26T01:15:44.192Z,1028.45
2018-09-26T01:16:44.187Z,1028.42
2018-09-26T01:17:44.183Z,1028.41
2018-09-26T01:18:44.194Z,1028.35
2018-09-26T01:19:44.159Z,1028.35
2018-09-26T01:20:44.160Z,1028.31
2018-09-26T01:21:44.148Z,1028.32
2018-09-26T01:22:44.139Z,1028.28
2018-09-26T01:23:44.139Z,1028.30
2018-09-26T01:24:44.139Z,1028.25
2018-09-26T01:25:44.113Z,1028.26
2018-09-26T01:26:44.103Z,1028.24
2018-09-26T01:27:44.094Z,1028.18
2018-09-26T01:28:44.092Z,1028.21
2018-09-26T01:29:44.082Z,1028.18
2018-09-26T01:30:44.069Z,1028.13
2018-09-26T01:31:44.084Z,1028.09
2018-09-26T01:32:44.053Z,1028.07
2018-09-26T01:33:44.082Z,1028.08
2018-09-26T01:34:44.035Z,1028.09
2018-09-26T01:35:44.033Z,1028.11
2018-09-26T01:36:44.017Z,1028.13
2018-09-26T01:37:44.011Z,1028.14
2018-09-26T01:38:44.007Z,1028.12
2018-09-26T01:39:43.993Z,1028.14
2018-09-26T01:40:43.984Z,1028.06
2018-09-26T01:41:44.527Z,1028.09
2018-09-26T01:42:43.964Z,1028.10
2018-09-26T01:43:43.959Z,1028.09
2018-09-26T01:44:43.949Z,1028.14
2018-09-26T01:45:43.942Z,1028.15
2018-09-26T01:46:43.929Z,1028.18
2018-09-26T01:47:43.927Z,1028.15
2018-09-26T01:48:43.914Z,1028.14
2018-09-26T01:49:43.904Z,1028.15
2018-09-26T01:50:43.902Z,1028.12
2018-09-26T01:51:43.897Z,1028.15
2018-09-26T01:52:43.883Z,1028.14
2018-09-26T01:53:43.871Z,1028.13
2018-09-26T01:54:43.862Z,1028.14
2018-09-26T01:55:43.862Z,1028.16
2018-09-26T01:56:43.842Z,1028.16
2018-09-26T01:57:43.839Z,1028.15
2018-09-26T01:58:43.831Z,1028.12
2018-09-26T01:59:43.828Z,1028.13
2018-09-26T02:00:43.814Z,1028.15
2018-09-26T02:01:43.807Z,1028.12
2018-09-26T02:02:43.792Z,1028.08
2018-09-26T02:03:43.792Z,1028.09
2018-09-26T02:04:44.515Z,1028.05
2018-09-26T02:05:43.769Z,1028.03
2018-09-26T02:06:43.764Z,1028.01
2018-09-26T02:07:43.752Z,1028.03
2018-09-26T02:08:43.743Z,1028.05
2018-09-26T02:09:43.736Z,1028.08
2018-09-26T02:10:43.732Z,1028.06
2018-09-26T02:11:43.739Z,1028.08
2018-09-26T02:12:43.714Z,1028.05
2018-09-26T02:13:43.705Z,1028.07
2018-09-26T02:14:43.692Z,1028.04
2018-09-26T02:15:43.684Z,1028.05
2018-09-26T02:16:43.676Z,1028.00
2018-09-26T02:17:43.669Z,1027.98
2018-09-26T02:18:43.685Z,1027.95
2018-09-26T02:19:43.649Z,1027.98
2018-09-26T02:20:43.647Z,1027.96
2018-09-26T02:21:43.634Z,1027.95
2018-09-26T02:22:43.627Z,1027.96
2018-09-26T02:23:43.672Z,1027.92
2018-09-26T02:24:43.611Z,1027.95
2018-09-26T02:25:43.614Z,1027.95
2018-09-26T02:26:43.597Z,1027.91
2018-09-26T02:27:43.592Z,1027.94
2018-09-26T02:28:43.582Z,1027.89
2018-09-26T02:29:43.569Z,1027.91
2018-09-26T02:30:43.562Z,1027.94
2018-09-26T02:31:43.558Z,1028.00
2018-09-26T02:32:43.563Z,1028.04
2018-09-26T02:33:43.538Z,1027.98
2018-09-26T02:34:43.528Z,1027.95
2018-09-26T02:35:43.538Z,1027.82
2018-09-26T02:36:43.508Z,1027.79
2018-09-26T02:37:43.505Z,1027.73
2018-09-26T02:38:43.492Z,1027.71
2018-09-26T02:39:43.522Z,1027.72
2018-09-26T02:40:44.021Z,1027.75
2018-09-26T02:41:43.483Z,1027.77
2018-09-26T02:42:43.460Z,1027.79
2018-09-26T02:43:43.447Z,1027.76
2018-09-26T02:44:43.438Z,1027.74
2018-09-26T02:45:43.443Z,1027.71
2018-09-26T02:46:43.422Z,1027.69
2018-09-26T02:47:43.417Z,1027.74
2018-09-26T02:48:43.413Z,1027.77
2018-09-26T02:49:43.406Z,1027.79
2018-09-26T02:50:43.392Z,1027.90
2018-09-26T02:51:43.387Z,1027.96
2018-09-26T02:52:43.404Z,1027.97
2018-09-26T02:53:43.367Z,1028.01
2018-09-26T02:54:43.358Z,1027.94
2018-09-26T02:55:43.432Z,1027.89
2018-09-26T02:56:43.339Z,1027.87
2018-09-26T02:57:43.343Z,1027.87
2018-09-26T02:58:43.329Z,1027.84
2018-09-26T02:59:43.315Z,1027.79
2018-09-26T03:00:43.313Z,1027.73
2018-09-26T03:01:43.297Z,1027.71
2018-09-26T03:02:43.289Z,1027.66
2018-09-26T03:03:43.291Z,1027.70
2018-09-26T03:04:43.282Z,1027.71
2018-09-26T03:05:43.286Z,1027.71
2018-09-26T03:06:43.254Z,1027.71
2018-09-26T03:07:43.247Z,1027.69
2018-09-26T03:08:43.237Z,1027.69
2018-09-26T03:09:43.235Z,1027.67
2018-09-26T03:10:43.276Z,1027.66
2018-09-26T03:11:43.209Z,1027.63
2018-09-26T03:12:43.205Z,1027.63
2018-09-26T03:13:43.199Z,1027.62
2018-09-26T03:14:43.190Z,1027.62
2018-09-26T03:15:43.174Z,1027.57
2018-09-26T03:16:43.177Z,1027.58
2018-09-26T03:17:43.214Z,1027.55
2018-09-26T03:18:43.154Z,1027.57
2018-09-26T03:19:43.148Z,1027.60
2018-09-26T03:20:43.135Z,1027.57
2018-09-26T03:21:43.125Z,1027.57
2018-09-26T03:22:43.117Z,1027.54
2018-09-26T03:23:43.113Z,1027.56
2018-09-26T03:24:43.107Z,1027.55
2018-09-26T03:25:43.096Z,1027.60
2018-09-26T03:26:43.089Z,1027.59
2018-09-26T03:27:43.080Z,1027.65
2018-09-26T03:28:43.065Z,1027.66
2018-09-26T03:29:43.058Z,1027.65
2018-09-26T03:30:43.077Z,1027.72
2018-09-26T03:31:43.042Z,1027.73
2018-09-26T03:32:43.069Z,1027.74
2018-09-26T03:33:43.089Z,1027.77
2018-09-26T03:34:43.023Z,1027.74
2018-09-26T03:35:43.007Z,1027.75
2018-09-26T03:36:43.004Z,1027.75
2018-09-26T03:37:42.988Z,1027.77
2018-09-26T03:38:42.996Z,1027.77
2018-09-26T03:39:42.975Z,1027.77
2018-09-26T03:40:42.969Z,1027.77
2018-09-26T03:41:42.957Z,1027.74
2018-09-26T03:42:42.947Z,1027.74
2018-09-26T03:43:42.943Z,1027.68
2018-09-26T03:44:42.930Z,1027.72
2018-09-26T03:45:43.542Z,1027.75
2018-09-26T03:46:42.927Z,1027.71
2018-09-26T03:47:42.910Z,1027.61
2018-09-26T03:48:57.568Z,1027.54
2018-09-26T03:49:42.889Z,1027.53
2018-09-26T03:50:42.881Z,1027.50
2018-09-26T03:51:42.869Z,1027.51
2018-09-26T03:52:42.866Z,1027.50
2018-09-26T03:53:42.852Z,1027.50
2018-09-26T03:54:42.843Z,1027.47
2018-09-26T03:55:42.841Z,1027.45
2018-09-26T03:56:42.829Z,1027.43
2018-09-26T03:57:42.819Z,1027.43
2018-09-26T03:58:42.830Z,1027.48
2018-09-26T03:59:42.804Z,1027.52
2018-09-26T04:00:42.795Z,1027.52
2018-09-26T04:01:42.791Z,1027.46
2018-09-26T04:02:42.775Z,1027.44
2018-09-26T04:03:42.774Z,1027.45
2018-09-26T04:04:42.762Z,1027.43
2018-09-26T04:05:42.772Z,1027.44
2018-09-26T04:06:42.740Z,1027.43
2018-09-26T04:07:42.748Z,1027.40
2018-09-26T04:08:42.728Z,1027.33
2018-09-26T04:09:42.718Z,1027.29
2018-09-26T04:10:43.552Z,1027.26
2018-09-26T04:11:42.722Z,1027.25
2018-09-26T04:12:42.714Z,1027.27
2018-09-26T04:13:42.685Z,1027.32
2018-09-26T04:14:42.677Z,1027.34
2018-09-26T04:15:42.738Z,1027.36
2018-09-26T04:16:42.658Z,1027.31
2018-09-26T04:17:42.649Z,1027.32
2018-09-26T04:18:42.639Z,1027.28
2018-09-26T04:19:43.575Z,1027.29
2018-09-26T04:20:42.631Z,1027.24
2018-09-26T04:21:42.612Z,1027.21
2018-09-26T04:22:42.628Z,1027.21
2018-09-26T04:23:42.598Z,1027.26
2018-09-26T04:24:42.618Z,1027.27
2018-09-26T04:25:42.609Z,1027.28
2018-09-26T04:26:42.741Z,1027.24
2018-09-26T04:27:42.671Z,1027.23
2018-09-26T04:28:42.554Z,1027.26
2018-09-26T04:29:42.553Z,1027.27
2018-09-26T04:30:42.536Z,1027.31
2018-09-26T04:31:42.523Z,1027.29
2018-09-26T04:32:42.633Z,1027.24
2018-09-26T04:33:42.591Z,1027.23
2018-09-26T04:34:42.503Z,1027.24
2018-09-26T04:35:42.494Z,1027.23
2018-09-26T04:36:42.486Z,1027.25
2018-09-26T04:37:42.484Z,1027.22
2018-09-26T04:38:42.498Z,1027.21
2018-09-26T04:39:42.473Z,1027.19
2018-09-26T04:40:42.453Z,1027.23
2018-09-26T04:41:42.442Z,1027.24
2018-09-26T04:42:42.434Z,1027.25
2018-09-26T04:43:42.428Z,1027.25
2018-09-26T04:44:42.427Z,1027.27
2018-09-26T04:45:42.420Z,1027.29
2018-09-26T04:46:42.398Z,1027.27
2018-09-26T04:47:42.388Z,1027.25
2018-09-26T04:48:42.379Z,1027.24
2018-09-26T04:49:42.389Z,1027.26
2018-09-26T04:50:42.438Z,1027.29
2018-09-26T04:51:42.368Z,1027.25
2018-09-26T04:52:42.368Z,1027.24
2018-09-26T04:53:42.341Z,1027.23
2018-09-26T04:54:42.350Z,1027.17
2018-09-26T04:55:42.320Z,1027.19
2018-09-26T04:56:42.316Z,1027.14
2018-09-26T04:57:42.359Z,1027.15
2018-09-26T04:58:42.293Z,1027.12
2018-09-26T04:59:42.299Z,1027.12
2018-09-26T05:00:42.281Z,1027.14
2018-09-26T05:01:42.273Z,1027.15
2018-09-26T05:02:42.263Z,1027.16
2018-09-26T05:03:42.255Z,1027.19
2018-09-26T05:04:42.256Z,1027.22
2018-09-26T05:05:42.254Z,1027.25
2018-09-26T05:06:42.229Z,1027.24
2018-09-26T05:07:42.221Z,1027.23
2018-09-26T05:08:42.213Z,1027.24
2018-09-26T05:09:42.207Z,1027.25
2018-09-26T05:10:42.192Z,1027.25
2018-09-26T05:11:42.193Z,1027.23
2018-09-26T05:12:42.200Z,1027.23
2018-09-26T05:13:42.169Z,1027.23
2018-09-26T05:14:42.226Z,1027.20
2018-09-26T05:15:42.151Z,1027.21
2018-09-26T05:16:42.145Z,1027.25
2018-09-26T05:17:42.136Z,1027.24
2018-09-26T05:18:42.123Z,1027.23
2018-09-26T05:19:42.140Z,1027.20
2018-09-26T05:20:42.107Z,1027.18
2018-09-26T05:21:42.104Z,1027.16
2018-09-26T05:22:42.160Z,1027.10
2018-09-26T05:23:42.098Z,1027.14
2018-09-26T05:24:42.097Z,1027.16
2018-09-26T05:25:42.140Z,1027.19
2018-09-26T05:26:42.056Z,1027.17
2018-09-26T05:27:42.044Z,1027.21
2018-09-26T05:28:42.046Z,1027.19
2018-09-26T05:29:42.029Z,1027.20
2018-09-26T05:30:42.060Z,1027.21
2018-09-26T05:31:42.015Z,1027.23
2018-09-26T05:32:42.030Z,1027.30
2018-09-26T05:33:41.996Z,1027.26
2018-09-26T05:34:41.988Z,1027.22
2018-09-26T05:35:41.979Z,1027.24
2018-09-26T05:36:41.968Z,1027.27
2018-09-26T05:37:41.958Z,1027.30
2018-09-26T05:38:41.968Z,1027.22
2018-09-26T05:39:41.944Z,1027.23
2018-09-26T05:40:41.934Z,1027.21
2018-09-26T05:41:42.015Z,1027.19
2018-09-26T05:42:41.916Z,1027.18
2018-09-26T05:43:41.906Z,1027.11
2018-09-26T05:44:41.898Z,1027.09
2018-09-26T05:45:41.892Z,1027.07
2018-09-26T05:46:41.884Z,1027.05
2018-09-26T05:47:41.870Z,1027.05
2018-09-26T05:48:41.867Z,1027.07
2018-09-26T05:49:41.860Z,1027.09
2018-09-26T05:50:41.847Z,1027.08
2018-09-26T05:51:41.859Z,1027.10
2018-09-26T05:52:41.833Z,1027.13
2018-09-26T05:53:41.824Z,1027.12
2018-09-26T05:54:41.814Z,1027.11
2018-09-26T05:55:41.801Z,1027.12
2018-09-26T05:56:41.802Z,1027.14
2018-09-26T05:57:41.800Z,1027.10
2018-09-26T05:58:41.818Z,1027.16
2018-09-26T05:59:42.638Z,1027.17
2018-09-26T06:00:41.763Z,1027.14
2018-09-26T06:01:41.754Z,1027.13
2018-09-26T06:02:41.752Z,1027.14
2018-09-26T06:03:42.588Z,1027.12
2018-09-26T06:04:41.743Z,1027.13
2018-09-26T06:05:41.730Z,1027.14
2018-09-26T06:06:41.710Z,1027.13
2018-09-26T06:07:41.698Z,1027.20
2018-09-26T06:08:41.693Z,1027.18
2018-09-26T06:09:41.685Z,1027.09
2018-09-26T06:10:41.675Z,1027.05
2018-09-26T06:11:41.666Z,1026.97
2018-09-26T06:12:41.675Z,1026.94
2018-09-26T06:13:41.647Z,1026.90
2018-09-26T06:14:41.642Z,1026.88
2018-09-26T06:15:41.634Z,1026.91
2018-09-26T06:16:41.630Z,1026.94
2018-09-26T06:17:41.613Z,1027.02
2018-09-26T06:18:41.625Z,1027.00
2018-09-26T06:19:41.632Z,1026.94
2018-09-26T06:20:41.592Z,1026.89
2018-09-26T06:21:41.585Z,1026.83
2018-09-26T06:22:41.578Z,1026.83
2018-09-26T06:23:41.576Z,1026.84
2018-09-26T06:24:41.604Z,1026.87
2018-09-26T06:25:41.548Z,1026.87
2018-09-26T06:26:41.535Z,1026.85
2018-09-26T06:27:41.528Z,1026.79
2018-09-26T06:28:41.535Z,1026.76
2018-09-26T06:29:41.517Z,1026.76
2018-09-26T06:30:41.503Z,1026.78
2018-09-26T06:31:41.515Z,1026.75
2018-09-26T06:32:41.492Z,1026.82
2018-09-26T06:33:41.502Z,1026.86
2018-09-26T06:34:41.474Z,1026.87
2018-09-26T06:35:41.471Z,1026.82
2018-09-26T06:36:41.459Z,1026.74
2018-09-26T06:37:41.449Z,1026.79
2018-09-26T06:38:41.462Z,1026.74
2018-09-26T06:39:41.442Z,1026.73
2018-09-26T06:40:41.427Z,1026.75
2018-09-26T06:41:41.417Z,1026.77
2018-09-26T06:42:41.424Z,1026.84
2018-09-26T06:43:41.402Z,1026.82
2018-09-26T06:44:41.388Z,1026.83
2018-09-26T06:45:41.380Z,1026.83
2018-09-26T06:46:41.392Z,1026.85
2018-09-26T06:47:41.363Z,1026.87
2018-09-26T06:48:41.366Z,1026.82
2018-09-26T06:49:41.352Z,1026.83
2018-09-26T06:50:41.343Z,1026.76
2018-09-26T06:51:41.344Z,1026.74
2018-09-26T06:52:41.332Z,1026.75
2018-09-26T06:53:41.313Z,1026.77
2018-09-26T06:54:41.316Z,1026.76
2018-09-26T06:55:41.298Z,1026.82
2018-09-26T06:56:41.299Z,1026.82
2018-09-26T06:57:41.283Z,1026.81
2018-09-26T06:58:41.285Z,1026.82
2018-09-26T06:59:41.280Z,1026.83
2018-09-26T07:00:41.263Z,1026.81
2018-09-26T07:01:41.260Z,1026.84
2018-09-26T07:02:41.241Z,1026.78
2018-09-26T07:03:41.243Z,1026.80
2018-09-26T07:04:42.139Z,1026.77
2018-09-26T07:05:41.230Z,1026.79
2018-09-26T07:06:41.222Z,1026.77
2018-09-26T07:07:41.204Z,1026.78
2018-09-26T07:08:41.201Z,1026.85
2018-09-26T07:09:41.189Z,1026.85
2018-09-26T07:10:41.186Z,1026.85
2018-09-26T07:11:41.171Z,1026.84
2018-09-26T07:12:41.166Z,1026.86
2018-09-26T07:13:41.171Z,1026.87
2018-09-26T07:14:41.149Z,1026.89
2018-09-26T07:15:41.178Z,1026.91
2018-09-26T07:16:41.137Z,1026.94
2018-09-26T07:17:41.132Z,1026.92
2018-09-26T07:18:41.117Z,1026.97
2018-09-26T07:19:41.112Z,1026.94
2018-09-26T07:20:41.109Z,1026.95
2018-09-26T07:21:41.122Z,1026.96
2018-09-26T07:22:41.131Z,1026.95
2018-09-26T07:23:41.085Z,1026.93
2018-09-26T07:24:41.078Z,1026.94
2018-09-26T07:25:41.064Z,1026.97
2018-09-26T07:26:41.073Z,1026.99
2018-09-26T07:27:41.062Z,1026.94
2018-09-26T07:28:41.043Z,1026.96
2018-09-26T07:29:41.042Z,1026.99
2018-09-26T07:30:41.028Z,1026.98
2018-09-26T07:31:41.024Z,1026.99
2018-09-26T07:32:41.007Z,1026.99
2018-09-26T07:33:41.007Z,1027.02
2018-09-26T07:34:41.016Z,1027.01
2018-09-26T07:35:40.993Z,1027.01
2018-09-26T07:36:40.986Z,1026.99
2018-09-26T07:37:40.982Z,1026.95
2018-09-26T07:38:40.968Z,1026.97
2018-09-26T07:39:40.958Z,1026.94
2018-09-26T07:40:40.951Z,1026.98
2018-09-26T07:41:40.952Z,1026.94
2018-09-26T07:42:40.951Z,1026.98
2018-09-26T07:43:40.933Z,1027.00
2018-09-26T07:44:40.922Z,1026.99
2018-09-26T07:45:40.973Z,1026.95
2018-09-26T07:46:42.624Z,1026.94
2018-09-26T07:47:40.903Z,1026.94
2018-09-26T07:48:40.908Z,1026.94
2018-09-26T07:49:40.897Z,1026.88
2018-09-26T07:50:40.882Z,1026.87
2018-09-26T07:51:40.875Z,1026.87
2018-09-26T07:52:41.628Z,1026.89
2018-09-26T07:53:40.860Z,1026.87
2018-09-26T07:54:40.852Z,1026.86
2018-09-26T07:55:40.853Z,1026.84
2018-09-26T07:56:41.648Z,1026.85
2018-09-26T07:57:40.842Z,1026.85
2018-09-26T07:58:41.632Z,1026.89
2018-09-26T07:59:40.828Z,1026.92
2018-09-26T08:00:40.814Z,1026.84
2018-09-26T08:01:40.815Z,1026.85
2018-09-26T08:02:40.803Z,1026.83
2018-09-26T08:03:40.791Z,1026.84
2018-09-26T08:04:40.782Z,1026.90
2018-09-26T08:05:40.774Z,1026.95
2018-09-26T08:06:41.643Z,1026.90
2018-09-26T08:07:40.760Z,1026.91
2018-09-26T08:08:40.755Z,1026.92
2018-09-26T08:09:40.752Z,1026.83
2018-09-26T08:10:40.740Z,1026.83
2018-09-26T08:11:41.650Z,1026.84
2018-09-26T08:12:40.743Z,1026.86
2018-09-26T08:13:40.720Z,1026.88
2018-09-26T08:14:40.718Z,1026.86
2018-09-26T08:15:40.708Z,1026.88
2018-09-26T08:16:40.703Z,1026.92
2018-09-26T08:17:40.697Z,1026.91
2018-09-26T08:18:40.744Z,1026.86
2018-09-26T08:19:40.686Z,1026.92
2018-09-26T08:20:40.679Z,1026.94
2018-09-26T08:21:40.674Z,1026.95
2018-09-26T08:22:40.721Z,1027.00
2018-09-26T08:23:40.750Z,1026.97
2018-09-26T08:24:40.651Z,1027.01
2018-09-26T08:25:40.645Z,1027.03
2018-09-26T08:26:40.640Z,1027.15
2018-09-26T08:27:40.646Z,1027.11
2018-09-26T08:28:40.643Z,1027.14
2018-09-26T08:29:40.662Z,1027.14
2018-09-26T08:30:40.627Z,1027.15
2018-09-26T08:31:40.609Z,1027.15
2018-09-26T08:32:40.602Z,1027.13
2018-09-26T08:33:40.595Z,1027.16
2018-09-26T08:34:40.592Z,1027.21
2018-09-26T08:35:40.594Z,1027.27
2018-09-26T08:36:40.593Z,1027.26
2018-09-26T08:37:40.570Z,1027.30
2018-09-26T08:38:40.574Z,1027.31
2018-09-26T08:39:40.562Z,1027.33
2018-09-26T08:40:40.555Z,1027.32
2018-09-26T08:41:40.553Z,1027.32
2018-09-26T08:42:40.545Z,1027.36
2018-09-26T08:43:40.537Z,1027.35
2018-09-26T08:44:40.544Z,1027.31
2018-09-26T08:45:41.161Z,1027.35
2018-09-26T08:46:40.523Z,1027.36
2018-09-26T08:47:40.519Z,1027.43
2018-09-26T08:48:40.509Z,1027.36
2018-09-26T08:49:40.510Z,1027.37
2018-09-26T08:50:40.502Z,1027.36
2018-09-26T08:51:40.494Z,1027.36
2018-09-26T08:52:40.502Z,1027.38
2018-09-26T08:53:40.523Z,1027.33
2018-09-26T08:54:40.481Z,1027.34
2018-09-26T08:55:40.474Z,1027.30
2018-09-26T08:56:40.470Z,1027.30
2018-09-26T08:57:40.467Z,1027.32
2018-09-26T08:58:40.457Z,1027.33
2018-09-26T08:59:40.566Z,1027.26
2018-09-26T09:00:40.454Z,1027.33
2018-09-26T09:01:40.447Z,1027.32
2018-09-26T09:02:40.443Z,1027.28
2018-09-26T09:03:40.442Z,1027.28
2018-09-26T09:04:40.440Z,1027.29
2018-09-26T09:05:40.433Z,1027.24
2018-09-26T09:06:40.433Z,1027.20
2018-09-26T09:07:40.437Z,1027.27
2018-09-26T09:08:40.421Z,1027.21
2018-09-26T09:09:40.423Z,1027.21
2018-09-26T09:10:40.421Z,1027.24
2018-09-26T09:11:40.469Z,1027.23
2018-09-26T09:12:40.418Z,1027.22
2018-09-26T09:13:40.412Z,1027.21
2018-09-26T09:14:40.503Z,1027.22
2018-09-26T09:15:40.411Z,1027.22
2018-09-26T09:16:40.400Z,1027.22
2018-09-26T09:17:40.453Z,1027.20
2018-09-26T09:18:40.399Z,1027.20
2018-09-26T09:19:40.393Z,1027.24
2018-09-26T09:20:40.395Z,1027.17
2018-09-26T09:21:40.403Z,1027.23
2018-09-26T09:22:40.405Z,1027.19
2018-09-26T09:23:40.393Z,1027.21
2018-09-26T09:24:40.382Z,1027.17
2018-09-26T09:25:40.381Z,1027.22
2018-09-26T09:26:40.385Z,1027.23
2018-09-26T09:27:40.458Z,1027.26
2018-09-26T09:28:40.379Z,1027.23
2018-09-26T09:29:40.408Z,1027.21
2018-09-26T09:30:40.369Z,1027.24
2018-09-26T09:31:40.371Z,1027.20
2018-09-26T09:32:40.369Z,1027.28
2018-09-26T09:33:40.365Z,1027.32
2018-09-26T09:34:40.383Z,1027.29
2018-09-26T09:35:40.394Z,1027.33
2018-09-26T09:36:40.462Z,1027.27
2018-09-26T09:37:40.362Z,1027.25
2018-09-26T09:38:40.363Z,1027.21
2018-09-26T09:39:40.359Z,1027.17
2018-09-26T09:40:40.355Z,1027.20
2018-09-26T09:41:40.354Z,1027.19
2018-09-26T09:42:40.348Z,1027.21
2018-09-26T09:43:40.348Z,1027.15
2018-09-26T09:44:40.348Z,1027.19
2018-09-26T09:45:40.353Z,1027.19
2018-09-26T09:46:40.368Z,1027.22
2018-09-26T09:47:40.339Z,1027.14
2018-09-26T09:48:40.344Z,1027.13
2018-09-26T09:49:40.342Z,1027.13
2018-09-26T09:50:40.360Z,1027.13
2018-09-26T09:51:40.399Z,1027.12
2018-09-26T09:52:40.339Z,1027.12
2018-09-26T09:53:40.332Z,1027.14
2018-09-26T09:54:40.329Z,1027.08
2018-09-26T09:55:40.329Z,1027.13
2018-09-26T09:56:40.336Z,1027.07
2018-09-26T09:57:40.333Z,1027.07
2018-09-26T09:58:40.334Z,1027.03
2018-09-26T09:59:40.339Z,1027.06
2018-09-26T10:00:41.198Z,1027.12
2018-09-26T10:01:40.319Z,1027.10
2018-09-26T10:02:40.389Z,1027.06
2018-09-26T10:03:40.321Z,1027.05
2018-09-26T10:04:40.320Z,1027.13
2018-09-26T10:05:40.318Z,1027.11
2018-09-26T10:06:40.316Z,1027.03
2018-09-26T10:07:40.317Z,1027.08
2018-09-26T10:08:40.325Z,1027.06
2018-09-26T10:09:40.321Z,1027.03
2018-09-26T10:10:40.308Z,1026.99
2018-09-26T10:11:40.309Z,1027.08
2018-09-26T10:12:40.309Z,1027.01
2018-09-26T10:13:40.303Z,1027.02
2018-09-26T10:14:40.335Z,1026.95
2018-09-26T10:15:40.305Z,1027.00
2018-09-26T10:16:40.304Z,1026.98
2018-09-26T10:17:40.331Z,1026.94
2018-09-26T10:18:40.303Z,1026.94
2018-09-26T10:19:40.318Z,1026.97
2018-09-26T10:20:40.305Z,1026.93
2018-09-26T10:21:40.307Z,1026.98
2018-09-26T10:22:40.300Z,1026.94
2018-09-26T10:23:40.301Z,1026.96
2018-09-26T10:24:40.298Z,1026.92
2018-09-26T10:25:40.315Z,1026.94
2018-09-26T10:26:40.293Z,1026.91
2018-09-26T10:27:40.296Z,1026.83
2018-09-26T10:28:40.297Z,1026.90
2018-09-26T10:29:40.309Z,1026.88
2018-09-26T10:30:40.289Z,1026.84
2018-09-26T10:31:40.291Z,1026.87
2018-09-26T10:32:40.293Z,1026.90
2018-09-26T10:33:40.290Z,1026.88
2018-09-26T10:34:40.286Z,1026.90
2018-09-26T10:35:40.289Z,1026.92
2018-09-26T10:36:40.302Z,1026.93
2018-09-26T10:37:40.303Z,1026.94
2018-09-26T10:38:40.311Z,1026.89
2018-09-26T10:39:40.289Z,1026.86
2018-09-26T10:40:40.282Z,1026.86
2018-09-26T10:41:40.282Z,1026.89
2018-09-26T10:42:40.280Z,1026.87
2018-09-26T10:43:40.279Z,1026.82
2018-09-26T10:44:40.284Z,1026.86
2018-09-26T10:45:40.338Z,1026.83
2018-09-26T10:46:40.288Z,1026.76
2018-09-26T10:47:40.276Z,1026.87
2018-09-26T10:48:40.278Z,1026.85
2018-09-26T10:49:40.281Z,1026.85
2018-09-26T10:50:40.278Z,1026.83
2018-09-26T10:51:40.274Z,1026.83
2018-09-26T10:52:40.282Z,1026.81
2018-09-26T10:53:40.278Z,1026.86
2018-09-26T10:54:40.278Z,1026.82
2018-09-26T10:55:40.274Z,1026.81
2018-09-26T10:56:40.323Z,1026.84
2018-09-26T10:57:40.279Z,1026.89
2018-09-26T10:58:40.277Z,1026.87
2018-09-26T10:59:40.279Z,1026.83
2018-09-26T11:00:40.300Z,1026.78
2018-09-26T11:01:40.284Z,1026.77
2018-09-26T11:02:40.276Z,1026.76
2018-09-26T11:03:40.275Z,1026.78
2018-09-26T11:04:40.277Z,1026.77
2018-09-26T11:05:40.281Z,1026.78
2018-09-26T11:06:40.282Z,1026.79
2018-09-26T11:07:40.286Z,1026.78
2018-09-26T11:08:40.292Z,1026.74
2018-09-26T11:09:40.300Z,1026.76
2018-09-26T11:10:40.280Z,1026.72
2018-09-26T11:11:40.284Z,1026.70
2018-09-26T11:12:40.340Z,1026.67
2018-09-26T11:13:41.186Z,1026.74
2018-09-26T11:14:40.284Z,1026.67
2018-09-26T11:15:40.290Z,1026.69
2018-09-26T11:16:40.290Z,1026.72
2018-09-26T11:17:40.292Z,1026.73
2018-09-26T11:18:41.272Z,1026.65
2018-09-26T11:19:40.289Z,1026.59
2018-09-26T11:20:40.298Z,1026.58
2018-09-26T11:21:40.297Z,1026.53
2018-09-26T11:22:40.301Z,1026.54
2018-09-26T11:23:40.299Z,1026.50
2018-09-26T11:24:40.302Z,1026.59
2018-09-26T11:25:40.306Z,1026.54
2018-09-26T11:26:40.384Z,1026.52
2018-09-26T11:27:40.303Z,1026.48
2018-09-26T11:28:40.331Z,1026.44
2018-09-26T11:29:40.308Z,1026.44
2018-09-26T11:30:40.309Z,1026.37
2018-09-26T11:31:40.309Z,1026.44
2018-09-26T11:32:40.317Z,1026.42
2018-09-26T11:33:40.349Z,1026.38
2018-09-26T11:34:40.321Z,1026.39
2018-09-26T11:35:40.320Z,1026.35
2018-09-26T11:36:40.320Z,1026.34
2018-09-26T11:37:40.321Z,1026.28
2018-09-26T11:38:40.326Z,1026.27
2018-09-26T11:39:40.326Z,1026.36
2018-09-26T11:40:40.328Z,1026.29
2018-09-26T11:41:40.330Z,1026.28
2018-09-26T11:42:40.336Z,1026.26
2018-09-26T11:43:40.339Z,1026.28
2018-09-26T11:44:40.339Z,1026.28
2018-09-26T11:45:40.338Z,1026.29
2018-09-26T11:46:40.343Z,1026.36
2018-09-26T11:47:40.355Z,1026.28
2018-09-26T11:48:40.350Z,1026.31
2018-09-26T11:49:40.358Z,1026.32
2018-09-26T11:50:40.404Z,1026.25
2018-09-26T11:51:40.360Z,1026.28
2018-09-26T11:52:40.421Z,1026.35
2018-09-26T11:53:40.383Z,1026.36
2018-09-26T11:54:41.284Z,1026.29
2018-09-26T11:55:40.366Z,1026.28
2018-09-26T11:56:40.426Z,1026.27
2018-09-26T11:57:40.377Z,1026.26
2018-09-26T11:58:40.382Z,1026.21
2018-09-26T11:59:41.288Z,1026.22
2018-09-26T12:00:40.381Z,1026.23
2018-09-26T12:01:40.391Z,1026.13
2018-09-26T12:02:40.434Z,1026.18
2018-09-26T12:03:40.396Z,1026.14
2018-09-26T12:04:40.396Z,1026.18
2018-09-26T12:05:40.395Z,1026.20